createdAt,value
2023-12-31T00:00:02.478Z,99.90
2023-12-31T00:01:37.275Z,99.90
2023-12-31T00:03:10.933Z,99.90
2023-12-31T00:04:43.203Z,99.90
2023-12-31T00:06:16.343Z,99.90
2023-12-31T00:07:48.568Z,99.90
2023-12-31T00:09:22.025Z,99.90
2023-12-31T00:10:55.190Z,99.90
2023-12-31T00:12:27.388Z,99.90
2023-12-31T00:14:01.955Z,99.90
2023-12-31T00:15:34.115Z,99.90
2023-12-31T00:17:07.246Z,99.90
2023-12-31T00:18:39.471Z,99.90
2023-12-31T00:20:13.139Z,99.90
2023-12-31T00:21:45.252Z,99.90
2023-12-31T00:23:19.526Z,99.90
2023-12-31T00:24:55.360Z,99.90
2023-12-31T00:26:27.570Z,99.90
2023-12-31T00:28:10.516Z,99.90
2023-12-31T00:29:45.486Z,99.90
2023-12-31T00:31:19.652Z,99.90
2023-12-31T00:32:52.932Z,99.90
2023-12-31T00:34:26.353Z,99.90
2023-12-31T00:35:59.518Z,99.90
2023-12-31T00:37:31.778Z,99.90
2023-12-31T00:39:05.113Z,99.90
2023-12-31T00:40:37.285Z,99.90
2023-12-31T00:42:10.361Z,99.90
2023-12-31T00:43:42.584Z,99.90
2023-12-31T00:45:17.230Z,99.90
2023-12-31T00:46:49.808Z,99.90
2023-12-31T00:48:23.024Z,99.90
2023-12-31T00:49:55.566Z,99.90
2023-12-31T00:51:28.717Z,99.90
2023-12-31T00:53:01.025Z,99.90
2023-12-31T00:54:34.444Z,99.90
2023-12-31T00:56:09.120Z,99.90
2023-12-31T00:57:42.283Z,99.90
2023-12-31T00:59:14.434Z,99.90
2023-12-31T01:00:49.029Z,99.90
2023-12-31T01:02:21.186Z,99.90
2023-12-31T01:03:54.337Z,99.90
2023-12-31T01:05:26.481Z,99.90
2023-12-31T01:06:59.876Z,99.90
2023-12-31T01:08:32.018Z,99.90
2023-12-31T01:10:06.591Z,99.90
2023-12-31T01:11:38.715Z,99.90
2023-12-31T01:13:11.825Z,99.90
2023-12-31T01:14:44.038Z,99.90
2023-12-31T01:16:18.921Z,99.90
2023-12-31T01:17:51.157Z,99.90
2023-12-31T01:19:24.338Z,99.90
2023-12-31T01:20:57.478Z,99.90
2023-12-31T01:22:29.644Z,99.90
2023-12-31T01:24:02.790Z,99.90
2023-12-31T01:25:35.095Z,99.90
2023-12-31T01:27:08.198Z,99.90
2023-12-31T01:28:40.390Z,99.90
2023-12-31T01:30:13.633Z,99.90
2023-12-31T01:31:47.884Z,99.90
2023-12-31T01:33:21.092Z,99.90
2023-12-31T01:34:55.397Z,99.90
2023-12-31T01:36:29.022Z,99.90
2023-12-31T01:38:01.164Z,99.90
2023-12-31T01:39:34.357Z,99.90
2023-12-31T01:41:08.457Z,99.90
2023-12-31T01:42:43.190Z,99.90
2023-12-31T01:44:15.509Z,99.90
2023-12-31T01:45:49.816Z,99.90
2023-12-31T01:47:25.078Z,99.90
2023-12-31T01:48:58.541Z,99.90
2023-12-31T01:50:30.868Z,99.90
2023-12-31T01:52:05.183Z,99.90
2023-12-31T01:53:37.427Z,99.90
2023-12-31T01:55:11.576Z,99.90
2023-12-31T01:56:45.649Z,99.90
2023-12-31T01:58:20.045Z,99.90
2023-12-31T01:59:54.401Z,99.90
2023-12-31T02:01:28.359Z,99.90
2023-12-31T02:03:03.938Z,99.90
2023-12-31T02:04:37.378Z,99.90
2023-12-31T02:06:09.572Z,99.90
2023-12-31T02:07:42.965Z,99.90
2023-12-31T02:09:16.126Z,99.90
2023-12-31T02:10:49.426Z,99.90
2023-12-31T02:12:23.605Z,99.90
2023-12-31T02:13:56.750Z,99.90
2023-12-31T02:15:33.708Z,99.90
2023-12-31T02:17:06.841Z,99.90
2023-12-31T02:18:40.382Z,99.90
2023-12-31T02:20:13.861Z,99.90
2023-12-31T02:21:46.084Z,99.90
2023-12-31T02:23:19.538Z,99.90
2023-12-31T02:24:54.830Z,99.90
2023-12-31T02:26:30.993Z,99.90
2023-12-31T02:28:03.301Z,99.90
2023-12-31T02:29:36.881Z,99.90
2023-12-31T02:31:09.040Z,99.90
2023-12-31T02:32:42.308Z,99.90
2023-12-31T02:34:14.468Z,99.90
2023-12-31T02:35:47.617Z,99.90
2023-12-31T02:37:20.778Z,99.90
2023-12-31T02:38:54.004Z,99.90
2023-12-31T02:40:26.156Z,99.90
2023-12-31T02:42:00.774Z,99.90
2023-12-31T02:43:33.739Z,99.90
2023-12-31T02:45:07.942Z,99.90
2023-12-31T02:46:40.512Z,99.90
2023-12-31T02:48:13.939Z,99.90
2023-12-31T02:49:46.171Z,99.90
2023-12-31T02:51:19.508Z,99.90
2023-12-31T02:52:51.711Z,99.90
2023-12-31T02:54:24.853Z,99.90
2023-12-31T02:55:57.160Z,99.90
2023-12-31T02:57:31.638Z,99.90
2023-12-31T02:59:04.075Z,99.90
2023-12-31T03:00:37.624Z,99.90
2023-12-31T03:02:09.847Z,99.90
2023-12-31T03:03:43.150Z,99.90
2023-12-31T03:05:15.506Z,99.90
2023-12-31T03:06:52.647Z,99.90
2023-12-31T03:08:26.120Z,99.90
2023-12-31T03:09:58.526Z,99.90
2023-12-31T03:11:31.622Z,99.90
2023-12-31T03:13:05.558Z,99.90
2023-12-31T03:14:39.684Z,99.90
2023-12-31T03:16:11.844Z,99.90
2023-12-31T03:17:45.106Z,99.90
2023-12-31T03:19:19.318Z,99.90
2023-12-31T03:20:52.640Z,99.90
2023-12-31T03:22:33.707Z,99.90
2023-12-31T03:24:15.304Z,99.90
2023-12-31T03:25:47.492Z,99.90
2023-12-31T03:27:21.723Z,99.90
2023-12-31T03:28:55.829Z,99.90
2023-12-31T03:30:29.006Z,99.90
2023-12-31T03:32:01.254Z,99.90
2023-12-31T03:33:34.535Z,99.90
2023-12-31T03:35:07.042Z,99.90
2023-12-31T03:36:40.346Z,99.90
2023-12-31T03:38:13.455Z,99.90
2023-12-31T03:39:45.623Z,99.90
2023-12-31T03:41:19.367Z,99.90
2023-12-31T03:42:51.512Z,99.90
2023-12-31T03:44:25.986Z,99.90
2023-12-31T03:45:58.490Z,99.90
2023-12-31T03:47:31.650Z,99.90
2023-12-31T03:49:03.921Z,99.90
2023-12-31T03:50:38.452Z,99.90
2023-12-31T03:52:12.097Z,99.90
2023-12-31T03:53:45.519Z,99.90
2023-12-31T03:55:18.020Z,99.90
2023-12-31T03:56:53.171Z,99.90
2023-12-31T03:58:25.341Z,99.90
2023-12-31T04:00:00.011Z,99.90
2023-12-31T04:01:32.273Z,99.90
2023-12-31T04:03:06.121Z,99.90
2023-12-31T04:04:40.470Z,99.90
2023-12-31T04:06:13.966Z,99.90
2023-12-31T04:07:47.366Z,99.90
2023-12-31T04:09:21.587Z,99.90
2023-12-31T04:10:53.877Z,99.90
2023-12-31T04:12:27.407Z,99.90
2023-12-31T04:13:59.567Z,99.90
2023-12-31T04:15:34.124Z,99.90
2023-12-31T04:17:06.292Z,99.90
2023-12-31T04:18:39.882Z,99.90
2023-12-31T04:20:12.520Z,99.90
2023-12-31T04:21:45.714Z,99.90
2023-12-31T04:23:19.270Z,99.90
2023-12-31T04:24:52.151Z,99.90
2023-12-31T04:26:25.954Z,99.90
2023-12-31T04:27:59.973Z,99.90
2023-12-31T04:29:33.208Z,99.90
2023-12-31T04:31:07.801Z,99.90
2023-12-31T04:32:40.981Z,99.90
2023-12-31T04:34:13.185Z,99.90
2023-12-31T04:35:51.222Z,99.90
2023-12-31T04:37:25.156Z,99.90
2023-12-31T04:38:57.708Z,99.90
2023-12-31T04:40:30.889Z,99.90
2023-12-31T04:42:03.112Z,99.90
2023-12-31T04:43:36.259Z,99.90
2023-12-31T04:45:10.988Z,99.90
2023-12-31T04:46:45.605Z,99.90
2023-12-31T04:48:18.790Z,99.90
2023-12-31T04:49:52.074Z,99.90
2023-12-31T04:51:25.420Z,99.90
2023-12-31T04:52:58.568Z,99.90
2023-12-31T04:54:32.302Z,99.90
2023-12-31T04:56:06.221Z,99.90
2023-12-31T04:57:38.641Z,99.90
2023-12-31T04:59:11.770Z,99.90
2023-12-31T05:00:44.372Z,99.90
2023-12-31T05:02:19.259Z,99.90
2023-12-31T05:03:51.781Z,99.90
2023-12-31T05:05:25.172Z,99.90
2023-12-31T05:06:58.997Z,99.90
2023-12-31T05:08:32.340Z,99.90
2023-12-31T05:10:06.005Z,99.90
2023-12-31T05:11:39.132Z,99.90
2023-12-31T05:13:11.488Z,99.90
2023-12-31T05:14:44.681Z,99.90
2023-12-31T05:16:17.454Z,99.90
2023-12-31T05:17:52.041Z,99.90
2023-12-31T05:19:24.286Z,99.90
2023-12-31T05:20:57.678Z,99.90
2023-12-31T05:22:30.911Z,99.90
2023-12-31T05:24:03.135Z,99.90
2023-12-31T05:25:36.498Z,99.90
2023-12-31T05:27:08.683Z,99.90
2023-12-31T05:28:42.245Z,99.90
2023-12-31T05:30:16.061Z,99.90
2023-12-31T05:31:48.308Z,99.90
2023-12-31T05:33:22.888Z,99.90
2023-12-31T05:34:55.156Z,99.90
2023-12-31T05:36:28.518Z,99.90
2023-12-31T05:38:00.617Z,99.90
2023-12-31T05:39:33.796Z,99.90
2023-12-31T05:41:05.985Z,99.90
2023-12-31T05:42:39.198Z,99.90
2023-12-31T05:44:13.410Z,99.90
2023-12-31T05:45:46.560Z,99.90
2023-12-31T05:47:44.437Z,99.90
2023-12-31T05:49:14.040Z,99.90
2023-12-31T05:50:47.840Z,99.90
2023-12-31T05:52:21.011Z,99.90
2023-12-31T05:53:53.176Z,99.90
2023-12-31T05:55:26.343Z,99.90
2023-12-31T05:56:58.545Z,99.90
2023-12-31T05:58:31.726Z,99.90
2023-12-31T06:00:06.639Z,99.90
2023-12-31T06:01:45.002Z,99.90
2023-12-31T06:03:17.256Z,99.90
2023-12-31T06:04:51.864Z,99.90
2023-12-31T06:06:24.134Z,99.90
2023-12-31T06:07:57.612Z,99.90
2023-12-31T06:09:30.784Z,99.90
2023-12-31T06:11:02.931Z,99.90
2023-12-31T06:12:36.206Z,99.90
2023-12-31T06:14:08.994Z,99.90
2023-12-31T06:15:42.162Z,99.90
2023-12-31T06:17:14.308Z,99.90
2023-12-31T06:18:47.572Z,99.90
2023-12-31T06:20:21.490Z,99.90
2023-12-31T06:21:54.645Z,99.90
2023-12-31T06:23:27.735Z,99.90
2023-12-31T06:24:59.909Z,99.90
2023-12-31T06:26:33.055Z,99.90
2023-12-31T06:28:05.732Z,99.90
2023-12-31T06:29:38.854Z,99.90
2023-12-31T06:31:12.678Z,99.90
2023-12-31T06:32:45.920Z,99.90
2023-12-31T06:34:18.219Z,99.90
2023-12-31T06:35:53.128Z,99.90
2023-12-31T06:37:25.326Z,99.90
2023-12-31T06:38:58.517Z,99.90
2023-12-31T06:40:30.805Z,99.90
2023-12-31T06:42:03.955Z,99.90
2023-12-31T06:43:36.201Z,99.90
2023-12-31T06:45:10.209Z,99.90
2023-12-31T06:46:42.554Z,99.90
2023-12-31T06:48:16.674Z,99.90
2023-12-31T06:49:48.981Z,99.90
2023-12-31T06:51:23.916Z,99.90
2023-12-31T06:52:56.137Z,99.90
2023-12-31T06:54:29.708Z,99.90
2023-12-31T06:56:04.971Z,99.90
2023-12-31T06:57:38.195Z,99.90
2023-12-31T06:59:10.342Z,99.90
2023-12-31T07:00:43.568Z,99.90
2023-12-31T07:02:15.934Z,99.90
2023-12-31T07:03:49.180Z,99.90
2023-12-31T07:05:21.343Z,99.90
2023-12-31T07:06:55.991Z,99.90
2023-12-31T07:08:28.826Z,99.90
2023-12-31T07:10:02.053Z,99.90
2023-12-31T07:11:34.224Z,99.90
2023-12-31T07:13:07.493Z,99.90
2023-12-31T07:14:39.804Z,99.90
2023-12-31T07:16:13.017Z,99.90
2023-12-31T07:17:45.965Z,99.90
2023-12-31T07:19:19.579Z,99.90
2023-12-31T07:20:52.886Z,99.90
2023-12-31T07:22:27.460Z,99.90
2023-12-31T07:24:00.684Z,99.90
2023-12-31T07:25:34.025Z,99.90
2023-12-31T07:27:06.403Z,99.90
2023-12-31T07:28:39.581Z,99.90
2023-12-31T07:30:12.407Z,99.90
2023-12-31T07:31:46.996Z,99.90
2023-12-31T07:33:19.831Z,99.90
2023-12-31T07:34:53.091Z,99.90
2023-12-31T07:36:25.239Z,99.90
2023-12-31T07:37:59.803Z,99.90
2023-12-31T07:39:33.202Z,99.90
2023-12-31T07:41:06.416Z,99.90
2023-12-31T07:42:38.873Z,99.90
2023-12-31T07:44:12.296Z,99.90
2023-12-31T07:45:45.639Z,99.90
2023-12-31T07:47:18.790Z,99.90
2023-12-31T07:48:53.245Z,99.90
2023-12-31T07:50:26.642Z,99.90
2023-12-31T07:51:58.860Z,99.90
2023-12-31T07:53:34.447Z,99.90
2023-12-31T07:55:10.036Z,99.90
2023-12-31T07:56:43.408Z,99.90
2023-12-31T07:58:15.735Z,99.90
2023-12-31T07:59:49.061Z,99.90
2023-12-31T08:01:22.365Z,99.90
2023-12-31T08:02:54.499Z,99.90
2023-12-31T08:04:27.757Z,99.90
2023-12-31T08:06:00.083Z,99.90
2023-12-31T08:07:33.345Z,99.90
2023-12-31T08:09:07.190Z,99.90
2023-12-31T08:10:41.966Z,99.90
2023-12-31T08:12:15.393Z,99.90
2023-12-31T08:13:47.719Z,99.90
2023-12-31T08:15:20.983Z,99.90
2023-12-31T08:16:53.200Z,99.90
2023-12-31T08:18:26.567Z,99.90
2023-12-31T08:19:58.963Z,99.90
2023-12-31T08:21:32.134Z,99.90
2023-12-31T08:23:06.201Z,99.90
2023-12-31T08:24:40.922Z,99.90
2023-12-31T08:26:14.443Z,99.90
2023-12-31T08:27:46.631Z,99.90
2023-12-31T08:29:20.262Z,99.90
2023-12-31T08:30:53.900Z,99.90
2023-12-31T08:32:28.302Z,99.90
2023-12-31T08:34:00.674Z,99.90
2023-12-31T08:35:34.340Z,99.90
2023-12-31T08:37:06.583Z,99.90
2023-12-31T08:38:39.742Z,99.90
2023-12-31T08:40:13.548Z,99.90
2023-12-31T08:41:46.766Z,99.90
2023-12-31T08:43:19.754Z,99.90
2023-12-31T08:45:01.978Z,99.90
2023-12-31T08:46:39.752Z,99.90
2023-12-31T08:48:12.413Z,99.90
2023-12-31T08:49:45.692Z,99.90
2023-12-31T08:51:17.871Z,99.90
2023-12-31T08:52:51.082Z,99.90
2023-12-31T08:54:23.328Z,99.90
2023-12-31T08:55:57.980Z,99.90
2023-12-31T08:57:30.182Z,99.90
2023-12-31T08:59:03.954Z,99.90
2023-12-31T09:00:36.158Z,99.90
2023-12-31T09:02:09.293Z,99.90
2023-12-31T09:03:41.503Z,99.90
2023-12-31T09:05:15.040Z,99.90
2023-12-31T09:06:49.168Z,99.90
2023-12-31T09:08:22.312Z,99.90
2023-12-31T09:09:54.481Z,99.90
2023-12-31T09:11:28.989Z,99.90
2023-12-31T09:13:01.551Z,99.90
2023-12-31T09:14:34.804Z,99.90
2023-12-31T09:16:07.063Z,99.90
2023-12-31T09:17:40.601Z,99.90
2023-12-31T09:19:12.910Z,99.90
2023-12-31T09:20:46.343Z,99.90
2023-12-31T09:22:18.661Z,99.90
2023-12-31T09:23:51.814Z,99.90
2023-12-31T09:25:24.168Z,99.90
2023-12-31T09:26:58.808Z,99.90
2023-12-31T09:28:32.204Z,99.90
2023-12-31T09:30:06.109Z,99.90
2023-12-31T09:31:39.250Z,99.90
2023-12-31T09:33:12.589Z,99.90
2023-12-31T09:34:44.973Z,99.90
2023-12-31T09:36:18.080Z,98.70
2023-12-31T09:37:50.295Z,88.80
2023-12-31T09:39:23.469Z,92.40
2023-12-31T09:40:56.154Z,95.70
2023-12-31T09:42:37.893Z,81.60
2023-12-31T09:44:13.208Z,72.30
2023-12-31T09:45:47.116Z,79.40
2023-12-31T09:47:19.975Z,93.40
2023-12-31T09:48:54.735Z,94.20
2023-12-31T09:50:29.618Z,87.50
2023-12-31T09:52:06.296Z,92.90
2023-12-31T09:53:40.420Z,93.30
2023-12-31T09:55:13.914Z,93.40
2023-12-31T09:56:47.430Z,99.40
2023-12-31T09:58:24.050Z,99.90
2023-12-31T09:59:57.186Z,98.20
2023-12-31T10:01:32.920Z,99.90
2023-12-31T10:03:07.982Z,99.90
2023-12-31T10:04:40.464Z,99.90
2023-12-31T10:06:13.797Z,98.90
2023-12-31T10:07:48.080Z,99.90
2023-12-31T10:09:21.357Z,99.90
2023-12-31T10:10:55.557Z,99.90
2023-12-31T10:12:28.856Z,97.80
2023-12-31T10:14:03.448Z,99.90
2023-12-31T10:15:36.658Z,97.30
2023-12-31T10:17:09.164Z,96.90
2023-12-31T10:18:42.930Z,98.90
2023-12-31T10:20:15.106Z,99.20
2023-12-31T10:21:48.287Z,95.60
2023-12-31T10:23:20.419Z,91.20
2023-12-31T10:24:53.629Z,81.90
2023-12-31T10:26:26.018Z,84.20
2023-12-31T10:27:59.455Z,71.90
2023-12-31T10:29:34.532Z,71.30
2023-12-31T10:31:08.215Z,68.10
2023-12-31T10:32:41.590Z,65.60
2023-12-31T10:34:15.635Z,66.60
2023-12-31T10:35:50.271Z,48.50
2023-12-31T10:37:23.531Z,53.20
2023-12-31T10:38:56.760Z,34.50
2023-12-31T10:40:29.913Z,28.00
2023-12-31T10:42:05.800Z,21.50
2023-12-31T10:43:41.441Z,20.50
2023-12-31T10:45:17.601Z,18.30
2023-12-31T10:46:53.221Z,14.40
2023-12-31T10:48:27.125Z,7.10
2023-12-31T10:50:00.905Z,10.40
2023-12-31T10:51:40.937Z,8.50
2023-12-31T10:53:14.375Z,4.40
2023-12-31T10:54:48.632Z,1.00
2023-12-31T10:56:22.088Z,1.00
2023-12-31T10:57:55.632Z,1.00
2023-12-31T10:59:30.913Z,1.00
2023-12-31T11:01:05.774Z,1.00
2023-12-31T11:02:39.902Z,1.00
2023-12-31T11:04:16.006Z,1.00
2023-12-31T11:05:49.662Z,1.00
2023-12-31T11:07:22.168Z,1.00
2023-12-31T11:08:57.184Z,1.00
2023-12-31T11:10:30.868Z,1.00
2023-12-31T11:12:03.441Z,1.00
2023-12-31T11:13:38.917Z,1.00
2023-12-31T11:15:14.894Z,2.70
2023-12-31T11:16:57.350Z,3.70
2023-12-31T11:18:50.145Z,6.20
2023-12-31T11:20:35.870Z,1.00
2023-12-31T11:22:24.386Z,1.00
2023-12-31T11:24:10.576Z,1.00
2023-12-31T11:25:47.467Z,2.50
2023-12-31T11:27:20.741Z,3.90
2023-12-31T11:28:55.789Z,8.90
2023-12-31T11:30:50.518Z,11.50
2023-12-31T11:32:24.324Z,21.80
2023-12-31T11:33:59.215Z,27.60
2023-12-31T11:35:42.527Z,37.30
2023-12-31T11:37:15.749Z,39.00
2023-12-31T11:38:58.721Z,35.30
2023-12-31T11:40:32.290Z,42.00
2023-12-31T11:42:11.086Z,41.30
2023-12-31T11:43:44.259Z,41.60
2023-12-31T11:45:42.218Z,43.10
2023-12-31T11:47:16.213Z,42.00
2023-12-31T11:48:56.449Z,42.50
2023-12-31T11:50:31.414Z,43.90
2023-12-31T11:52:05.259Z,42.30
2023-12-31T11:53:50.078Z,45.30
2023-12-31T11:55:23.109Z,47.70
2023-12-31T11:56:56.587Z,44.60
2023-12-31T11:58:29.243Z,50.30
2023-12-31T12:00:08.022Z,42.60
2023-12-31T12:01:42.113Z,50.90
2023-12-31T12:03:16.018Z,47.80
2023-12-31T12:04:50.667Z,42.60
2023-12-31T12:06:23.176Z,38.50
2023-12-31T12:07:56.877Z,34.70
2023-12-31T12:09:32.214Z,29.40
2023-12-31T12:11:05.012Z,34.90
2023-12-31T12:12:38.210Z,30.40
2023-12-31T12:14:11.446Z,32.20
2023-12-31T12:15:44.606Z,32.00
2023-12-31T12:17:18.278Z,30.10
2023-12-31T12:18:59.222Z,33.10
2023-12-31T12:20:36.205Z,33.90
2023-12-31T12:22:11.316Z,38.60
2023-12-31T12:23:43.804Z,38.40
2023-12-31T12:25:17.448Z,41.20
2023-12-31T12:26:50.948Z,46.30
2023-12-31T12:28:24.759Z,47.30
2023-12-31T12:29:57.781Z,51.20
2023-12-31T12:31:36.603Z,50.40
2023-12-31T12:33:13.719Z,51.20
2023-12-31T12:34:50.592Z,54.80
2023-12-31T12:36:24.723Z,60.10
2023-12-31T12:37:57.966Z,64.30
2023-12-31T12:39:30.212Z,61.70
2023-12-31T12:41:05.687Z,63.40
2023-12-31T12:42:39.188Z,66.00
2023-12-31T12:44:12.888Z,62.10
2023-12-31T12:45:46.857Z,53.40
2023-12-31T12:47:19.936Z,38.60
2023-12-31T12:48:53.243Z,32.50
2023-12-31T12:50:27.861Z,28.50
2023-12-31T12:52:02.481Z,27.70
2023-12-31T12:53:35.006Z,27.60
2023-12-31T12:55:08.858Z,28.30
2023-12-31T12:56:41.129Z,27.10
2023-12-31T12:58:14.570Z,27.10
2023-12-31T12:59:46.688Z,28.40
2023-12-31T13:01:20.092Z,28.40
2023-12-31T13:02:52.224Z,41.30
2023-12-31T13:04:25.778Z,52.00
2023-12-31T13:05:59.798Z,57.90
2023-12-31T13:07:34.722Z,64.50
2023-12-31T13:09:07.966Z,68.60
2023-12-31T13:10:43.009Z,73.60
2023-12-31T13:12:15.476Z,80.90
2023-12-31T13:13:48.636Z,81.10
2023-12-31T13:15:20.835Z,84.50
2023-12-31T13:16:56.310Z,90.80
2023-12-31T13:18:29.898Z,92.20
2023-12-31T13:20:03.629Z,94.20
2023-12-31T13:21:35.821Z,95.40
2023-12-31T13:23:10.885Z,96.40
2023-12-31T13:24:43.024Z,93.90
2023-12-31T13:26:16.243Z,90.10
2023-12-31T13:27:48.364Z,92.00
2023-12-31T13:29:21.617Z,92.10
2023-12-31T13:30:53.808Z,93.90
2023-12-31T13:32:27.008Z,96.20
2023-12-31T13:34:00.594Z,99.20
2023-12-31T13:35:34.031Z,99.60
2023-12-31T13:37:06.194Z,99.90
2023-12-31T13:38:40.683Z,99.90
2023-12-31T13:40:14.425Z,99.90
2023-12-31T13:41:46.572Z,99.90
2023-12-31T13:43:20.409Z,99.90
2023-12-31T13:44:52.548Z,99.90
2023-12-31T13:46:25.772Z,99.90
2023-12-31T13:47:58.093Z,99.90
2023-12-31T13:49:31.318Z,99.90
2023-12-31T13:51:05.714Z,99.90
2023-12-31T13:52:38.359Z,98.80
2023-12-31T13:54:12.866Z,96.70
2023-12-31T13:55:46.482Z,93.90
2023-12-31T13:57:19.696Z,90.40
2023-12-31T13:58:51.908Z,85.90
2023-12-31T14:00:25.034Z,85.10
2023-12-31T14:01:59.446Z,81.00
2023-12-31T14:03:32.740Z,80.90
2023-12-31T14:05:05.606Z,81.30
2023-12-31T14:10:05.149Z,81.00
2023-12-31T14:11:37.832Z,90.20
2023-12-31T14:13:11.106Z,91.30
2023-12-31T14:14:44.021Z,92.00
2023-12-31T14:16:17.207Z,90.70
2023-12-31T14:17:50.521Z,91.50
2023-12-31T14:19:29.526Z,94.30
2023-12-31T14:21:05.111Z,93.90
2023-12-31T14:22:38.459Z,94.80
2023-12-31T14:24:13.101Z,93.00
2023-12-31T14:25:46.764Z,92.60
2023-12-31T14:27:19.905Z,94.70
2023-12-31T14:28:52.287Z,94.00
2023-12-31T14:30:25.562Z,92.20
2023-12-31T14:31:58.918Z,94.20
2023-12-31T14:33:31.412Z,95.90
2023-12-31T14:35:05.142Z,97.80
2023-12-31T14:36:37.308Z,98.80
2023-12-31T14:38:10.520Z,99.90
2023-12-31T14:39:42.698Z,98.90
2023-12-31T14:41:17.376Z,99.90
2023-12-31T14:42:49.584Z,99.90
2023-12-31T14:44:24.759Z,99.90
2023-12-31T14:45:57.281Z,99.90
2023-12-31T14:47:30.466Z,99.90
2023-12-31T14:49:06.316Z,99.90
2023-12-31T14:50:40.212Z,99.90
2023-12-31T14:52:15.307Z,99.90
2023-12-31T14:53:48.580Z,99.90
2023-12-31T14:55:21.105Z,99.90
2023-12-31T14:56:56.018Z,99.90
2023-12-31T14:58:28.305Z,99.90
2023-12-31T15:00:01.658Z,99.90
2023-12-31T15:01:34.121Z,99.90
2023-12-31T15:03:08.487Z,99.90
2023-12-31T15:04:41.077Z,99.90
2023-12-31T15:06:14.527Z,99.90
2023-12-31T15:07:46.940Z,99.90
2023-12-31T15:09:21.374Z,99.90
2023-12-31T15:10:54.229Z,99.90
2023-12-31T15:12:28.898Z,99.90
2023-12-31T15:14:01.375Z,99.90
2023-12-31T15:15:34.998Z,99.90
2023-12-31T15:17:07.484Z,99.90
2023-12-31T15:18:40.809Z,99.90
2023-12-31T15:20:18.921Z,99.90
2023-12-31T15:21:51.777Z,99.90
2023-12-31T15:23:25.300Z,99.90
2023-12-31T15:24:57.615Z,99.90
2023-12-31T15:26:30.870Z,99.90
2023-12-31T15:28:05.295Z,99.90
2023-12-31T15:29:38.660Z,99.90
2023-12-31T15:31:18.941Z,99.90
2023-12-31T15:32:52.307Z,99.90
2023-12-31T15:34:25.047Z,99.90
2023-12-31T15:35:58.713Z,99.90
2023-12-31T15:37:31.085Z,99.90
2023-12-31T15:39:05.198Z,99.90
2023-12-31T15:40:40.531Z,99.90
2023-12-31T15:42:13.974Z,99.90
2023-12-31T15:43:47.660Z,99.90
2023-12-31T15:45:21.876Z,99.90
2023-12-31T15:46:55.222Z,99.90
2023-12-31T15:48:27.685Z,99.90
2023-12-31T15:50:00.996Z,99.90
2023-12-31T15:51:33.710Z,99.90
2023-12-31T15:53:07.276Z,99.90
2023-12-31T15:54:39.700Z,99.90
2023-12-31T15:56:13.923Z,99.90
2023-12-31T15:57:46.220Z,99.90
2023-12-31T15:59:20.797Z,99.90
2023-12-31T16:00:55.671Z,99.90
2023-12-31T16:02:29.109Z,99.90
2023-12-31T16:04:01.300Z,99.90
2023-12-31T16:05:34.636Z,99.90
2023-12-31T16:07:06.937Z,99.90
2023-12-31T16:08:40.241Z,99.90
2023-12-31T16:10:12.584Z,99.90
2023-12-31T16:11:46.157Z,99.90
2023-12-31T16:13:18.716Z,99.90
2023-12-31T16:14:53.654Z,99.90
2023-12-31T16:16:26.095Z,99.90
2023-12-31T16:17:59.516Z,99.90
2023-12-31T16:19:36.805Z,99.90
2023-12-31T16:21:10.167Z,99.90
2023-12-31T16:22:44.310Z,99.90
2023-12-31T16:24:17.718Z,99.90
2023-12-31T16:25:50.037Z,99.90
2023-12-31T16:27:23.465Z,99.90
2023-12-31T16:28:55.888Z,99.90
2023-12-31T16:30:30.614Z,99.90
2023-12-31T16:32:03.113Z,99.90
2023-12-31T16:33:36.338Z,99.90
2023-12-31T16:35:10.549Z,99.90
2023-12-31T16:36:43.931Z,99.90
2023-12-31T16:38:17.287Z,99.90
2023-12-31T16:39:49.527Z,99.90
2023-12-31T16:41:23.908Z,99.90
2023-12-31T16:42:56.093Z,99.90
2023-12-31T16:44:29.340Z,99.90
2023-12-31T16:46:03.086Z,99.90
2023-12-31T16:47:37.658Z,99.90
2023-12-31T16:49:10.356Z,99.90
2023-12-31T16:50:43.774Z,99.90
2023-12-31T16:52:16.196Z,99.90
2023-12-31T16:53:49.728Z,99.90
2023-12-31T16:55:22.454Z,99.90
2023-12-31T16:56:55.905Z,99.90
2023-12-31T16:58:28.282Z,99.90
2023-12-31T17:00:01.997Z,99.90
2023-12-31T17:01:37.248Z,99.90
2023-12-31T17:03:10.570Z,99.90
2023-12-31T17:04:47.371Z,99.90
2023-12-31T17:06:20.621Z,99.90
2023-12-31T17:07:52.928Z,99.90
2023-12-31T17:09:26.414Z,99.90
2023-12-31T17:10:58.757Z,99.90
2023-12-31T17:12:32.336Z,99.90
2023-12-31T17:14:04.870Z,99.90
2023-12-31T17:15:38.270Z,99.90
2023-12-31T17:17:11.910Z,99.90
2023-12-31T17:18:45.678Z,99.90
2023-12-31T17:20:19.015Z,99.90
2023-12-31T17:21:51.801Z,99.90
2023-12-31T17:23:25.103Z,99.90
2023-12-31T17:24:58.848Z,99.90
2023-12-31T17:26:32.122Z,99.90
2023-12-31T17:28:05.504Z,99.90
2023-12-31T17:29:38.904Z,99.90
2023-12-31T17:31:11.201Z,99.90
2023-12-31T17:32:45.850Z,99.90
2023-12-31T17:34:18.228Z,99.90
2023-12-31T17:35:52.372Z,99.90
2023-12-31T17:37:26.039Z,99.90
2023-12-31T17:38:58.345Z,99.90
2023-12-31T17:40:32.080Z,99.90
2023-12-31T17:42:06.870Z,99.90
2023-12-31T17:43:40.234Z,99.90
2023-12-31T17:45:12.568Z,99.90
2023-12-31T17:46:46.427Z,99.90
2023-12-31T17:48:21.252Z,99.90
2023-12-31T17:49:54.015Z,99.90
2023-12-31T17:51:28.445Z,99.90
2023-12-31T17:53:00.824Z,99.90
2023-12-31T17:54:34.212Z,99.90
2023-12-31T17:56:06.883Z,99.90
2023-12-31T17:57:40.160Z,99.90
2023-12-31T17:59:12.390Z,99.90
2023-12-31T18:00:46.560Z,99.90
2023-12-31T18:02:19.548Z,99.90
2023-12-31T18:03:54.201Z,99.90
2023-12-31T18:05:26.493Z,99.90
2023-12-31T18:06:59.929Z,99.90
2023-12-31T18:08:33.188Z,99.90
2023-12-31T18:10:09.355Z,99.90
2023-12-31T18:11:43.942Z,99.90
2023-12-31T18:13:16.180Z,99.90
2023-12-31T18:14:49.467Z,99.90
2023-12-31T18:16:21.844Z,99.90
2023-12-31T18:17:55.379Z,99.90
2023-12-31T18:19:29.883Z,99.90
2023-12-31T18:21:03.358Z,99.90
2023-12-31T18:22:35.971Z,99.90
2023-12-31T18:24:09.615Z,99.90
2023-12-31T18:25:41.956Z,99.90
2023-12-31T18:27:17.392Z,99.90
2023-12-31T18:28:50.302Z,99.90
2023-12-31T18:30:28.577Z,99.90
2023-12-31T18:32:04.825Z,99.90
2023-12-31T18:33:38.189Z,99.90
2023-12-31T18:35:11.956Z,99.90
2023-12-31T18:36:45.740Z,99.90
2023-12-31T18:38:19.700Z,99.90
2023-12-31T18:39:55.679Z,99.90
2023-12-31T18:41:28.034Z,99.90
2023-12-31T18:43:01.607Z,99.90
2023-12-31T18:44:33.941Z,99.90
2023-12-31T18:46:07.133Z,99.90
2023-12-31T18:47:40.869Z,99.90
2023-12-31T18:49:13.206Z,99.90
2023-12-31T18:50:47.963Z,99.90
2023-12-31T18:52:20.278Z,99.90
2023-12-31T18:53:53.713Z,99.90
2023-12-31T18:55:27.492Z,99.90
2023-12-31T18:57:01.992Z,99.90
2023-12-31T18:58:34.487Z,99.90
2023-12-31T19:00:10.177Z,99.90
2023-12-31T19:01:42.812Z,99.90
2023-12-31T19:03:16.136Z,99.90
2023-12-31T19:04:48.862Z,99.90
2023-12-31T19:06:23.980Z,99.90
2023-12-31T19:07:57.261Z,99.90
2023-12-31T19:09:30.534Z,99.90
2023-12-31T19:11:03.238Z,99.90
2023-12-31T19:12:38.349Z,99.90
2023-12-31T19:14:10.644Z,99.90
2023-12-31T19:15:44.001Z,99.90
2023-12-31T19:17:18.991Z,99.90
2023-12-31T19:18:57.511Z,99.90
2023-12-31T19:20:30.884Z,99.90
2023-12-31T19:22:04.980Z,99.90
2023-12-31T19:23:38.178Z,99.90
2023-12-31T19:25:11.154Z,99.90
2023-12-31T19:26:46.680Z,99.90
2023-12-31T19:28:19.997Z,99.90
2023-12-31T19:29:53.376Z,99.90
2023-12-31T19:31:25.666Z,99.90
2023-12-31T19:32:59.126Z,99.90
2023-12-31T19:34:31.699Z,99.90
2023-12-31T19:36:05.444Z,99.90
2023-12-31T19:37:40.233Z,99.90
2023-12-31T19:39:12.526Z,99.90
2023-12-31T19:40:47.605Z,99.90
2023-12-31T19:42:20.040Z,99.90
2023-12-31T19:45:29.708Z,99.90
2023-12-31T19:47:03.032Z,99.90
2023-12-31T19:48:36.388Z,99.90
2023-12-31T19:50:09.604Z,99.90
2023-12-31T19:51:44.864Z,99.90
2023-12-31T19:53:18.550Z,99.90
2023-12-31T19:54:51.752Z,99.90
2023-12-31T19:56:24.216Z,99.90
2023-12-31T19:57:58.209Z,99.90
2023-12-31T19:59:30.593Z,99.90
2023-12-31T20:01:04.209Z,99.90
2023-12-31T20:02:36.446Z,99.90
2023-12-31T20:04:09.851Z,99.90
2023-12-31T20:05:42.193Z,99.90
2023-12-31T20:07:15.549Z,99.90
2023-12-31T20:08:49.181Z,99.90
2023-12-31T20:10:23.170Z,99.90
2023-12-31T20:11:55.689Z,99.90
2023-12-31T20:13:28.960Z,99.90